createdAt,value
2019-05-06T00:00:26.729Z,7.40
2019-05-06T00:01:26.729Z,7.20
2019-05-06T00:02:26.753Z,8.00
2019-05-06T00:03:26.778Z,7.30
2019-05-06T00:04:30.638Z,7.30
2019-05-06T00:05:26.830Z,7.30
2019-05-06T00:06:26.854Z,6.60
2019-05-06T00:07:26.902Z,7.00
2019-05-06T00:08:26.903Z,7.30
2019-05-06T00:09:26.930Z,7.10
2019-05-06T00:10:26.957Z,6.60
2019-05-06T00:11:26.981Z,6.50
2019-05-06T00:12:27.003Z,7.70
2019-05-06T00:13:27.031Z,7.40
2019-05-06T00:14:27.057Z,7.00
2019-05-06T00:15:27.081Z,7.20
2019-05-06T00:16:27.106Z,6.60
2019-05-06T00:17:27.132Z,6.50
2019-05-06T00:18:27.157Z,6.60
2019-05-06T00:19:27.181Z,6.70
2019-05-06T00:20:27.206Z,7.10
2019-05-06T00:21:27.257Z,6.90
2019-05-06T00:22:27.260Z,6.60
2019-05-06T00:23:27.283Z,6.60
2019-05-06T00:24:27.308Z,6.70
2019-05-06T00:25:27.334Z,7.30
2019-05-06T00:26:27.359Z,6.60
2019-05-06T00:27:27.384Z,6.60
2019-05-06T00:28:27.409Z,6.60
2019-05-06T00:29:27.436Z,6.30
2019-05-06T00:30:27.461Z,6.50
2019-05-06T00:31:27.486Z,6.20
2019-05-06T00:32:27.512Z,7.20
2019-05-06T00:33:27.537Z,6.80
2019-05-06T00:34:27.563Z,7.90
2019-05-06T00:35:27.590Z,7.60
2019-05-06T00:36:27.612Z,6.60
2019-05-06T00:37:27.638Z,6.70
2019-05-06T00:38:27.663Z,7.50
2019-05-06T00:39:27.687Z,7.20
2019-05-06T00:40:27.713Z,6.80
2019-05-06T00:41:27.744Z,6.90
2019-05-06T00:42:27.764Z,6.70
2019-05-06T00:43:27.791Z,7.00
2019-05-06T00:44:27.816Z,6.60
2019-05-06T00:45:27.841Z,6.70
2019-05-06T00:46:27.866Z,7.00
2019-05-06T00:47:27.891Z,7.30
2019-05-06T00:48:27.914Z,7.30
2019-05-06T00:49:27.943Z,7.10
2019-05-06T00:50:30.926Z,6.50
2019-05-06T00:51:27.992Z,6.80
2019-05-06T00:52:28.018Z,6.70
2019-05-06T00:53:28.043Z,6.80
2019-05-06T00:54:28.069Z,6.80
2019-05-06T00:55:28.092Z,6.70
2019-05-06T00:56:28.118Z,7.00
2019-05-06T00:57:28.143Z,6.90
2019-05-06T00:58:28.171Z,7.20
2019-05-06T00:59:28.194Z,6.80
2019-05-06T01:00:28.225Z,7.20
2019-05-06T01:01:29.869Z,7.60
2019-05-06T01:02:28.272Z,6.60
2019-05-06T01:03:28.294Z,7.40
2019-05-06T01:04:28.320Z,7.00
2019-05-06T01:05:28.345Z,6.90
2019-05-06T01:06:28.371Z,6.80
2019-05-06T01:07:28.396Z,7.40
2019-05-06T01:08:28.443Z,7.40
2019-05-06T01:09:28.445Z,7.30
2019-05-06T01:10:28.472Z,7.50
2019-05-06T01:11:28.497Z,6.90
2019-05-06T01:12:28.523Z,6.90
2019-05-06T01:13:28.547Z,6.80
2019-05-06T01:14:28.573Z,7.20
2019-05-06T01:15:28.597Z,6.70
2019-05-06T01:16:28.623Z,6.70
2019-05-06T01:17:28.647Z,6.80
2019-05-06T01:18:28.675Z,6.60
2019-05-06T01:19:28.699Z,6.90
2019-05-06T01:20:28.723Z,6.90
2019-05-06T01:21:28.749Z,6.60
2019-05-06T01:22:28.775Z,6.70
2019-05-06T01:23:28.799Z,6.60
2019-05-06T01:24:28.824Z,6.90
2019-05-06T01:25:28.850Z,7.50
2019-05-06T01:26:28.876Z,6.90
2019-05-06T01:27:28.901Z,7.10
2019-05-06T01:28:28.927Z,6.50
2019-05-06T01:29:28.951Z,6.80
2019-05-06T01:30:28.977Z,6.60
2019-05-06T01:31:42.120Z,6.50
2019-05-06T01:32:29.027Z,7.10
2019-05-06T01:33:29.077Z,6.40
2019-05-06T01:34:29.077Z,7.30
2019-05-06T01:35:29.102Z,7.30
2019-05-06T01:36:29.128Z,6.70
2019-05-06T01:37:29.154Z,7.00
2019-05-06T01:38:29.178Z,6.30
2019-05-06T01:39:29.203Z,6.60
2019-05-06T01:40:29.232Z,7.00
2019-05-06T01:41:29.254Z,6.70
2019-05-06T01:42:29.281Z,6.40
2019-05-06T01:43:29.305Z,6.20
2019-05-06T01:44:29.329Z,6.70
2019-05-06T01:45:29.356Z,6.80
2019-05-06T01:46:29.380Z,6.60
2019-05-06T01:47:29.404Z,6.60
2019-05-06T01:48:29.430Z,6.50
2019-05-06T01:49:29.457Z,7.00
2019-05-06T01:50:29.483Z,6.80
2019-05-06T01:51:29.509Z,6.50
2019-05-06T01:52:29.531Z,6.70
2019-05-06T01:53:29.557Z,6.00
2019-05-06T01:54:29.583Z,6.90
2019-05-06T01:55:29.608Z,6.20
2019-05-06T01:56:29.632Z,6.80
2019-05-06T01:57:29.659Z,6.90
2019-05-06T01:58:29.683Z,6.70
2019-05-06T01:59:29.711Z,6.50
2019-05-06T02:00:29.733Z,7.40
2019-05-06T02:01:29.760Z,7.30
2019-05-06T02:02:29.786Z,7.50
2019-05-06T02:03:29.808Z,7.00
2019-05-06T02:04:29.836Z,6.90
2019-05-06T02:05:29.861Z,6.80
2019-05-06T02:06:29.936Z,6.90
2019-05-06T02:07:29.911Z,6.20
2019-05-06T02:08:29.935Z,6.80
2019-05-06T02:09:29.961Z,7.10
2019-05-06T02:10:29.987Z,7.80
2019-05-06T02:11:30.014Z,6.90
2019-05-06T02:12:30.037Z,6.30
2019-05-06T02:13:30.062Z,6.80
2019-05-06T02:14:30.087Z,6.90
2019-05-06T02:15:30.112Z,6.50
2019-05-06T02:16:30.137Z,6.70
2019-05-06T02:17:30.165Z,6.50
2019-05-06T02:18:30.190Z,6.70
2019-05-06T02:19:30.213Z,6.60
2019-05-06T02:20:30.239Z,6.90
2019-05-06T02:21:30.264Z,7.10
2019-05-06T02:22:30.290Z,6.60
2019-05-06T02:23:30.316Z,6.90
2019-05-06T02:24:30.341Z,7.00
2019-05-06T02:25:30.366Z,7.00
2019-05-06T02:26:30.392Z,6.30
2019-05-06T02:27:30.416Z,6.50
2019-05-06T02:28:30.441Z,6.20
2019-05-06T02:29:30.467Z,7.20
2019-05-06T02:30:30.531Z,7.00
2019-05-06T02:31:30.519Z,6.60
2019-05-06T02:32:31.776Z,7.60
2019-05-06T02:33:30.570Z,7.60
2019-05-06T02:34:30.594Z,6.70
2019-05-06T02:35:30.619Z,6.90
2019-05-06T02:36:30.646Z,7.40
2019-05-06T02:37:30.670Z,6.80
2019-05-06T02:38:39.156Z,7.40
2019-05-06T02:39:33.914Z,7.00
2019-05-06T02:40:33.211Z,7.40
2019-05-06T02:41:33.528Z,7.80
2019-05-06T02:42:33.702Z,7.30
2019-05-06T02:43:34.062Z,7.80
2019-05-06T02:44:33.612Z,7.80
2019-05-06T02:45:33.214Z,7.80
2019-05-06T02:46:33.795Z,7.60
2019-05-06T02:47:34.037Z,6.80
2019-05-06T02:48:33.553Z,6.90
2019-05-06T02:49:33.001Z,6.60
2019-05-06T02:50:33.819Z,6.80
2019-05-06T02:51:33.310Z,7.90
2019-05-06T02:52:32.932Z,7.20
2019-05-06T02:53:33.368Z,7.00
2019-05-06T02:54:34.204Z,6.80
2019-05-06T02:55:33.402Z,7.30
2019-05-06T02:56:33.325Z,6.80
2019-05-06T02:57:33.453Z,7.60
2019-05-06T02:58:33.088Z,6.90
2019-05-06T02:59:33.085Z,8.00
2019-05-06T03:00:33.003Z,7.40
2019-05-06T03:01:33.938Z,7.40
2019-05-06T03:02:39.878Z,6.60
2019-05-06T03:03:33.722Z,7.10
2019-05-06T03:04:33.159Z,7.60
2019-05-06T03:05:33.340Z,7.30
2019-05-06T03:06:33.750Z,6.80
2019-05-06T03:07:32.756Z,7.60
2019-05-06T03:08:32.821Z,7.40
2019-05-06T03:09:33.971Z,7.60
2019-05-06T03:10:32.893Z,6.80
2019-05-06T03:11:33.213Z,7.80
2019-05-06T03:12:33.526Z,7.30
2019-05-06T03:13:33.935Z,6.80
2019-05-06T03:14:34.689Z,7.40
2019-05-06T03:15:34.310Z,7.10
2019-05-06T03:16:33.316Z,6.80
2019-05-06T03:17:32.872Z,7.10
2019-05-06T03:18:32.797Z,7.30
2019-05-06T03:19:34.156Z,7.20
2019-05-06T03:20:32.388Z,7.10
2019-05-06T03:21:36.692Z,7.40
2019-05-06T03:22:34.417Z,7.60
2019-05-06T03:23:34.948Z,7.20
2019-05-06T03:24:33.127Z,7.50
2019-05-06T03:25:33.108Z,7.00
2019-05-06T03:26:33.150Z,7.00
2019-05-06T03:27:32.877Z,7.10
2019-05-06T03:28:33.341Z,7.00
2019-05-06T03:29:33.405Z,7.50
2019-05-06T03:30:36.233Z,7.10
2019-05-06T03:31:36.491Z,7.10
2019-05-06T03:32:37.559Z,7.10
2019-05-06T03:33:50.322Z,6.80
2019-05-06T03:34:52.212Z,6.80
2019-05-06T03:35:44.083Z,6.70
2019-05-06T03:36:39.458Z,6.50
2019-05-06T03:37:33.456Z,6.70
2019-05-06T03:38:33.473Z,7.10
2019-05-06T03:39:33.810Z,7.50
2019-05-06T03:40:36.097Z,7.50
2019-05-06T03:41:33.780Z,7.40
2019-05-06T03:42:33.407Z,7.40
2019-05-06T03:43:33.885Z,7.00
2019-05-06T03:44:33.070Z,7.60
2019-05-06T03:45:33.472Z,6.70
2019-05-06T03:46:33.618Z,7.80
2019-05-06T03:47:34.465Z,7.20
2019-05-06T03:48:33.266Z,7.30
2019-05-06T03:49:33.877Z,7.30
2019-05-06T03:50:33.646Z,6.90
2019-05-06T03:51:34.344Z,7.20
2019-05-06T03:52:34.148Z,6.60
2019-05-06T03:53:33.549Z,6.50
2019-05-06T03:54:34.245Z,6.60
2019-05-06T03:55:34.273Z,6.50
2019-05-06T03:56:33.860Z,7.10
2019-05-06T03:57:35.844Z,7.10
2019-05-06T03:58:34.613Z,6.70
2019-05-06T03:59:33.567Z,7.30
2019-05-06T04:00:33.455Z,6.60
2019-05-06T04:01:33.657Z,6.60
2019-05-06T04:02:33.581Z,6.80
2019-05-06T04:03:44.180Z,7.00
2019-05-06T04:04:33.384Z,7.10
2019-05-06T04:05:33.515Z,7.00
2019-05-06T04:06:33.534Z,6.70
2019-05-06T04:07:35.052Z,7.20
2019-05-06T04:08:34.235Z,7.40
2019-05-06T04:09:36.666Z,7.00
2019-05-06T04:10:36.692Z,7.50
2019-05-06T04:11:35.900Z,7.00
2019-05-06T04:12:33.389Z,6.80
2019-05-06T04:13:33.384Z,6.80
2019-05-06T04:14:33.998Z,6.80
2019-05-06T04:15:34.211Z,8.00
2019-05-06T04:16:33.829Z,6.90
2019-05-06T04:17:33.203Z,7.20
2019-05-06T04:18:33.549Z,6.70
2019-05-06T04:19:33.526Z,6.90
2019-05-06T04:20:34.286Z,7.00
2019-05-06T04:21:33.320Z,6.70
2019-05-06T04:22:33.493Z,6.40
2019-05-06T04:23:33.466Z,7.10
2019-05-06T04:24:33.811Z,6.60
2019-05-06T04:25:34.070Z,6.60
2019-05-06T04:26:33.441Z,6.50
2019-05-06T04:27:33.834Z,6.40
2019-05-06T04:28:34.157Z,6.80
2019-05-06T04:29:35.644Z,7.00
2019-05-06T04:30:33.607Z,6.90
2019-05-06T04:31:33.855Z,7.30
2019-05-06T04:32:34.207Z,7.20
2019-05-06T04:33:33.611Z,6.90
2019-05-06T04:34:33.637Z,7.90
2019-05-06T04:35:33.968Z,7.80
2019-05-06T04:36:33.917Z,7.10
2019-05-06T04:37:34.129Z,7.10
2019-05-06T04:38:33.981Z,7.30
2019-05-06T04:39:33.771Z,7.70
2019-05-06T04:40:33.790Z,7.60
2019-05-06T04:41:34.429Z,7.80
2019-05-06T04:42:34.639Z,7.00
2019-05-06T04:43:33.926Z,7.70
2019-05-06T04:44:33.898Z,7.60
2019-05-06T04:45:33.949Z,7.10
2019-05-06T04:46:35.054Z,7.60
2019-05-06T04:47:33.982Z,7.20
2019-05-06T04:48:33.997Z,8.50
2019-05-06T04:49:34.022Z,7.90
2019-05-06T04:50:34.047Z,8.00
2019-05-06T04:51:37.030Z,7.80
2019-05-06T04:52:34.452Z,8.20
2019-05-06T04:53:34.222Z,8.00
2019-05-06T04:54:34.154Z,7.80
2019-05-06T04:55:34.201Z,7.50
2019-05-06T04:56:34.207Z,7.60
2019-05-06T04:57:34.228Z,8.80
2019-05-06T04:58:34.255Z,8.40
2019-05-06T04:59:34.280Z,8.00
2019-05-06T05:00:34.306Z,7.20
2019-05-06T05:01:34.370Z,8.00
2019-05-06T05:02:34.358Z,7.40
2019-05-06T05:03:34.387Z,7.40
2019-05-06T05:04:36.790Z,6.50
2019-05-06T05:05:34.440Z,7.40
2019-05-06T05:06:34.461Z,6.30
2019-05-06T05:07:34.489Z,7.20
2019-05-06T05:08:34.513Z,6.30
2019-05-06T05:09:34.540Z,6.60
2019-05-06T05:10:34.565Z,7.20
2019-05-06T05:11:34.592Z,7.40
2019-05-06T05:12:34.617Z,6.80
2019-05-06T05:13:34.643Z,7.60
2019-05-06T05:14:34.668Z,7.60
2019-05-06T05:15:34.695Z,6.80
2019-05-06T05:16:34.721Z,7.10
2019-05-06T05:17:34.747Z,7.00
2019-05-06T05:18:34.774Z,7.00
2019-05-06T05:19:34.798Z,7.60
2019-05-06T05:20:40.686Z,8.20
2019-05-06T05:21:34.851Z,8.10
2019-05-06T05:22:34.877Z,7.40
2019-05-06T05:23:34.903Z,7.20
2019-05-06T05:24:34.929Z,8.40
2019-05-06T05:25:34.956Z,7.90
2019-05-06T05:26:34.983Z,8.20
2019-05-06T05:27:35.008Z,8.30
2019-05-06T05:28:35.045Z,7.70
2019-05-06T05:29:35.061Z,8.00
2019-05-06T05:30:35.087Z,8.00
2019-05-06T05:31:35.112Z,8.80
2019-05-06T05:32:35.139Z,7.60
2019-05-06T05:33:35.166Z,7.70
2019-05-06T05:34:39.883Z,7.60
2019-05-06T05:35:35.220Z,8.00
2019-05-06T05:36:35.243Z,7.70
2019-05-06T05:37:35.271Z,7.90
2019-05-06T05:38:35.296Z,8.10
2019-05-06T05:39:35.328Z,7.80
2019-05-06T05:40:35.356Z,7.90
2019-05-06T05:41:35.451Z,8.50
2019-05-06T05:42:35.404Z,8.60
2019-05-06T05:43:35.427Z,8.40
2019-05-06T05:44:35.454Z,8.10
2019-05-06T05:45:35.480Z,8.40
2019-05-06T05:46:35.508Z,8.10
2019-05-06T05:47:35.532Z,7.50
2019-05-06T05:48:35.558Z,8.20
2019-05-06T05:49:35.588Z,7.90
2019-05-06T05:50:35.613Z,7.80
2019-05-06T05:51:35.637Z,7.40
2019-05-06T05:52:35.664Z,7.60
2019-05-06T05:53:35.690Z,7.20
2019-05-06T05:54:35.717Z,7.60
2019-05-06T05:55:35.742Z,7.10
2019-05-06T05:56:35.769Z,7.50
2019-05-06T05:57:35.796Z,7.30
2019-05-06T05:58:35.823Z,7.80
2019-05-06T05:59:35.848Z,8.10
2019-05-06T06:00:35.877Z,9.20
2019-05-06T06:01:35.913Z,8.60
2019-05-06T06:02:35.929Z,10.60
2019-05-06T06:03:35.953Z,7.80
2019-05-06T06:04:35.981Z,7.30
2019-05-06T06:05:36.007Z,7.70
2019-05-06T06:06:36.033Z,7.50
2019-05-06T06:07:36.060Z,7.20
2019-05-06T06:08:37.042Z,7.50
2019-05-06T06:09:36.135Z,9.10
2019-05-06T06:10:36.144Z,10.70
2019-05-06T06:11:36.167Z,10.20
2019-05-06T06:12:36.193Z,7.60
2019-05-06T06:13:36.221Z,8.50
2019-05-06T06:14:36.248Z,8.70
2019-05-06T06:15:36.273Z,7.80
2019-05-06T06:16:36.302Z,8.90
2019-05-06T06:17:36.329Z,7.80
2019-05-06T06:18:36.355Z,7.10
2019-05-06T06:19:36.584Z,7.70
2019-05-06T06:20:36.434Z,7.40
2019-05-06T06:21:37.068Z,6.90
2019-05-06T06:22:36.464Z,8.50
2019-05-06T06:23:36.490Z,8.60
2019-05-06T06:24:36.518Z,8.40
2019-05-06T06:25:36.546Z,6.60
2019-05-06T06:26:36.575Z,8.10
2019-05-06T06:27:36.600Z,6.50
2019-05-06T06:28:36.631Z,6.60
2019-05-06T06:29:36.655Z,7.00
2019-05-06T06:30:36.686Z,7.10
2019-05-06T06:31:36.711Z,7.30
2019-05-06T06:32:36.740Z,6.80
2019-05-06T06:33:36.767Z,6.60
2019-05-06T06:34:36.796Z,6.90
2019-05-06T06:35:36.823Z,6.40
2019-05-06T06:36:36.853Z,6.40
2019-05-06T06:37:36.880Z,7.50
2019-05-06T06:38:36.909Z,6.60
2019-05-06T06:39:36.937Z,6.50
2019-05-06T06:40:38.025Z,6.00
2019-05-06T06:41:36.994Z,6.30
2019-05-06T06:42:37.025Z,6.30
2019-05-06T06:43:37.052Z,6.10
2019-05-06T06:44:37.083Z,6.80
2019-05-06T06:45:37.109Z,7.30
2019-05-06T06:46:37.140Z,7.30
2019-05-06T06:47:37.167Z,7.10
2019-05-06T06:48:37.197Z,7.20
2019-05-06T06:49:37.224Z,6.20
2019-05-06T06:50:37.258Z,6.80
2019-05-06T06:51:37.284Z,6.80
2019-05-06T06:52:37.316Z,6.50
2019-05-06T06:53:37.339Z,6.40
2019-05-06T06:54:37.395Z,6.20
2019-05-06T06:55:37.398Z,6.80
2019-05-06T06:56:37.426Z,6.10
2019-05-06T06:57:37.457Z,11.70
2019-05-06T06:58:37.586Z,8.00
2019-05-06T06:59:37.514Z,7.50
2019-05-06T07:00:37.543Z,7.50
2019-05-06T07:01:37.572Z,7.40
2019-05-06T07:02:37.602Z,8.00
2019-05-06T07:03:37.656Z,7.40
2019-05-06T07:04:37.660Z,7.20
2019-05-06T07:05:37.693Z,7.10
2019-05-06T07:06:37.722Z,7.90
2019-05-06T07:07:43.537Z,7.10
2019-05-06T07:08:37.979Z,7.00
2019-05-06T07:09:37.808Z,8.20
2019-05-06T07:10:37.836Z,8.30
2019-05-06T07:11:37.865Z,7.80
2019-05-06T07:12:37.894Z,7.70
2019-05-06T07:13:37.923Z,7.40
2019-05-06T07:14:37.953Z,9.20
2019-05-06T07:15:37.981Z,8.80
2019-05-06T07:16:38.012Z,8.80
2019-05-06T07:17:38.042Z,8.60
2019-05-06T07:18:38.071Z,8.10
2019-05-06T07:19:38.105Z,8.50
2019-05-06T07:20:38.131Z,10.40
2019-05-06T07:21:38.741Z,10.10
2019-05-06T07:22:38.191Z,12.10
2019-05-06T07:23:38.217Z,11.80
2019-05-06T07:24:38.249Z,11.60
2019-05-06T07:25:38.279Z,11.60
2019-05-06T07:26:38.309Z,12.90
2019-05-06T07:27:38.337Z,12.00
2019-05-06T07:28:38.368Z,12.70
2019-05-06T07:29:38.401Z,13.50
2019-05-06T07:30:38.426Z,10.90
2019-05-06T07:31:38.456Z,11.80
2019-05-06T07:32:38.486Z,11.60
2019-05-06T07:33:38.516Z,9.30
2019-05-06T07:34:38.546Z,8.50
2019-05-06T07:35:41.203Z,9.00
2019-05-06T07:36:38.604Z,9.30
2019-05-06T07:37:38.635Z,8.50
2019-05-06T07:38:38.672Z,9.20
2019-05-06T07:39:38.694Z,9.60
2019-05-06T07:40:38.724Z,9.00
2019-05-06T07:41:40.783Z,9.30
2019-05-06T07:42:38.784Z,9.40
2019-05-06T07:43:38.837Z,10.50
2019-05-06T07:44:38.844Z,11.20
2019-05-06T07:45:38.875Z,10.80
2019-05-06T07:46:42.741Z,11.70
2019-05-06T07:47:38.935Z,11.40
2019-05-06T07:48:38.964Z,10.90
2019-05-06T07:49:39.016Z,11.00
2019-05-06T07:50:39.028Z,10.80
2019-05-06T07:51:39.055Z,11.40
2019-05-06T07:52:39.085Z,11.30
2019-05-06T07:53:39.116Z,11.70
2019-05-06T07:54:39.146Z,11.30
2019-05-06T07:55:39.175Z,12.20
2019-05-06T07:56:39.207Z,11.90
2019-05-06T07:57:39.236Z,12.50
2019-05-06T07:58:39.281Z,13.00
2019-05-06T07:59:39.348Z,12.50
2019-05-06T08:00:39.327Z,13.10
2019-05-06T08:01:39.363Z,13.60
2019-05-06T08:02:39.388Z,13.10
2019-05-06T08:03:39.418Z,12.80
2019-05-06T08:04:39.453Z,12.40
2019-05-06T08:05:54.245Z,12.70
2019-05-06T08:06:39.512Z,12.50
2019-05-06T08:07:39.542Z,11.50
2019-05-06T08:08:39.873Z,12.60
2019-05-06T08:09:39.604Z,12.60
2019-05-06T08:10:39.635Z,12.50
2019-05-06T08:11:39.665Z,11.90
2019-05-06T08:12:39.696Z,12.10
2019-05-06T08:13:39.732Z,11.80
2019-05-06T08:14:39.760Z,12.50
2019-05-06T08:15:41.992Z,11.60
2019-05-06T08:16:42.435Z,11.60
2019-05-06T08:17:42.105Z,12.00
2019-05-06T08:18:42.361Z,13.10
2019-05-06T08:19:42.184Z,13.30
2019-05-06T08:20:39.949Z,13.00
2019-05-06T08:21:39.980Z,12.60
2019-05-06T08:22:42.161Z,13.00
2019-05-06T08:23:40.045Z,13.50
2019-05-06T08:24:42.206Z,14.00
2019-05-06T08:25:42.556Z,13.30
2019-05-06T08:26:40.140Z,13.70
2019-05-06T08:27:42.395Z,12.40
2019-05-06T08:28:41.726Z,13.10
2019-05-06T08:29:42.285Z,12.80
2019-05-06T08:30:42.858Z,12.80
2019-05-06T08:31:40.301Z,12.90
2019-05-06T08:32:42.364Z,12.60
2019-05-06T08:33:40.365Z,13.00
2019-05-06T08:34:42.134Z,13.00
2019-05-06T08:35:42.585Z,13.50
2019-05-06T08:36:42.466Z,13.50
2019-05-06T08:37:42.518Z,12.70
2019-05-06T08:38:42.191Z,13.30
2019-05-06T08:39:43.817Z,13.50
2019-05-06T08:40:42.863Z,12.90
2019-05-06T08:41:42.318Z,12.60
2019-05-06T08:42:42.546Z,13.90
2019-05-06T08:43:42.200Z,12.60
2019-05-06T08:44:42.753Z,13.10
2019-05-06T08:45:42.110Z,13.70
2019-05-06T08:46:42.951Z,13.30
2019-05-06T08:47:42.538Z,14.60
2019-05-06T08:48:42.799Z,13.60
2019-05-06T08:49:42.252Z,13.40
2019-05-06T08:50:42.561Z,13.10
2019-05-06T08:51:42.678Z,14.10
2019-05-06T08:52:42.490Z,13.60
2019-05-06T08:53:42.460Z,13.30
2019-05-06T08:54:43.230Z,13.30
2019-05-06T08:55:42.102Z,12.70
2019-05-06T08:56:42.685Z,13.40
2019-05-06T08:57:42.037Z,13.00
2019-05-06T08:58:43.168Z,13.80
2019-05-06T08:59:42.397Z,13.30
2019-05-06T09:00:42.888Z,13.00
2019-05-06T09:01:42.432Z,12.90
2019-05-06T09:02:42.538Z,13.40
2019-05-06T09:03:42.316Z,12.90
2019-05-06T09:04:42.735Z,12.40
2019-05-06T09:05:42.342Z,11.40
2019-05-06T09:06:43.173Z,13.00
2019-05-06T09:07:43.008Z,13.00
2019-05-06T09:08:42.951Z,12.80
2019-05-06T09:09:42.142Z,13.10
2019-05-06T09:10:42.917Z,13.90
2019-05-06T09:11:43.118Z,13.40
2019-05-06T09:12:42.523Z,14.00
2019-05-06T09:13:42.849Z,13.30
2019-05-06T09:14:43.047Z,13.40
2019-05-06T09:15:42.913Z,13.70
2019-05-06T09:16:43.703Z,12.20
2019-05-06T09:17:42.090Z,13.30
2019-05-06T09:18:42.605Z,14.00
2019-05-06T09:19:42.723Z,13.50
2019-05-06T09:20:43.201Z,14.30
2019-05-06T09:21:45.853Z,13.20
2019-05-06T09:22:42.945Z,12.80
2019-05-06T09:23:42.484Z,12.90
2019-05-06T09:24:42.690Z,13.10
2019-05-06T09:25:42.466Z,12.80
2019-05-06T09:26:43.108Z,12.60
2019-05-06T09:27:42.303Z,12.60
2019-05-06T09:28:42.734Z,12.60
2019-05-06T09:29:42.989Z,13.00
2019-05-06T09:30:43.211Z,11.80
2019-05-06T09:31:42.844Z,13.20
2019-05-06T09:32:42.819Z,12.80
2019-05-06T09:33:42.597Z,13.00
2019-05-06T09:34:43.169Z,14.00
2019-05-06T09:35:42.389Z,13.20
2019-05-06T09:36:51.474Z,12.90
2019-05-06T09:37:43.081Z,13.70
2019-05-06T09:38:42.606Z,13.70
2019-05-06T09:39:43.204Z,12.50
2019-05-06T09:40:43.308Z,13.20
2019-05-06T09:41:46.337Z,11.50
2019-05-06T09:42:42.714Z,10.90
2019-05-06T09:43:43.303Z,10.80
2019-05-06T09:44:42.948Z,10.50
2019-05-06T09:45:42.754Z,12.00
2019-05-06T09:46:42.868Z,11.40
2019-05-06T09:47:42.770Z,10.60
2019-05-06T09:48:42.803Z,10.40
2019-05-06T09:49:42.837Z,10.90
2019-05-06T09:50:46.111Z,11.50
2019-05-06T09:51:42.901Z,11.40
2019-05-06T09:52:42.974Z,10.80
2019-05-06T09:53:43.250Z,11.00
2019-05-06T09:54:43.000Z,10.70
2019-05-06T09:55:43.146Z,11.70
2019-05-06T09:56:43.065Z,10.30
2019-05-06T09:57:43.098Z,8.60
2019-05-06T09:58:43.141Z,10.00
2019-05-06T09:59:43.164Z,10.20
2019-05-06T10:00:43.202Z,11.00
2019-05-06T10:01:43.820Z,10.40
2019-05-06T10:02:43.266Z,9.70
2019-05-06T10:03:43.306Z,8.70
2019-05-06T10:04:43.357Z,9.70
2019-05-06T10:05:43.367Z,9.40
2019-05-06T10:06:55.797Z,9.20
2019-05-06T10:07:43.438Z,9.30
2019-05-06T10:08:43.476Z,8.40
2019-05-06T10:09:43.696Z,9.70
2019-05-06T10:10:56.189Z,9.60
2019-05-06T10:11:43.589Z,8.70
2019-05-06T10:12:43.625Z,8.90
2019-05-06T10:13:43.665Z,8.50
2019-05-06T10:14:43.702Z,8.60
2019-05-06T10:15:43.738Z,9.40
2019-05-06T10:16:43.777Z,8.80
2019-05-06T10:17:43.813Z,9.40
2019-05-06T10:18:43.851Z,7.60
2019-05-06T10:19:43.888Z,7.10
2019-05-06T10:20:43.930Z,7.00
2019-05-06T10:21:43.962Z,7.30
2019-05-06T10:22:43.998Z,7.70
2019-05-06T10:23:44.034Z,7.40
2019-05-06T10:24:44.071Z,7.40
2019-05-06T10:25:44.120Z,8.30
2019-05-06T10:26:44.146Z,8.20
2019-05-06T10:27:44.180Z,7.80
2019-05-06T10:28:44.223Z,8.00
2019-05-06T10:29:44.253Z,8.90
2019-05-06T10:30:44.291Z,7.80
2019-05-06T10:31:44.337Z,8.20
2019-05-06T10:32:44.367Z,8.20
2019-05-06T10:33:44.456Z,8.30
2019-05-06T10:34:44.444Z,8.70
2019-05-06T10:35:44.492Z,8.40
2019-05-06T10:36:44.522Z,7.90
2019-05-06T10:37:47.996Z,7.80
2019-05-06T10:38:44.602Z,7.40
2019-05-06T10:39:44.642Z,7.10
2019-05-06T10:40:59.522Z,7.30
2019-05-06T10:41:44.725Z,7.10
2019-05-06T10:42:44.769Z,7.20
2019-05-06T10:43:44.812Z,6.30
2019-05-06T10:44:44.853Z,6.50
2019-05-06T10:45:44.895Z,6.80
2019-05-06T10:46:44.939Z,5.50
2019-05-06T10:47:44.981Z,6.70
2019-05-06T10:48:45.026Z,7.40
2019-05-06T10:49:45.072Z,7.20
2019-05-06T10:50:45.116Z,7.20
2019-05-06T10:51:45.161Z,6.70
2019-05-06T10:52:45.206Z,7.20
2019-05-06T10:53:45.251Z,7.50
2019-05-06T10:54:47.918Z,7.70
2019-05-06T10:55:45.342Z,7.60
2019-05-06T10:56:52.877Z,7.70
2019-05-06T10:57:45.430Z,6.60
2019-05-06T10:58:45.478Z,6.70
2019-05-06T10:59:45.523Z,7.60
2019-05-06T11:00:45.570Z,6.90
2019-05-06T11:01:45.617Z,8.40
2019-05-06T11:02:45.662Z,7.20
2019-05-06T11:03:45.709Z,7.70
2019-05-06T11:04:45.755Z,7.80
2019-05-06T11:05:46.027Z,7.90
2019-05-06T11:09:45.983Z,8.70
2019-05-06T11:10:46.030Z,8.70
2019-05-06T11:11:46.074Z,8.00
2019-05-06T11:12:46.120Z,8.00
2019-05-06T11:13:46.170Z,7.00
2019-05-06T11:14:46.215Z,7.00
2019-05-06T11:15:46.255Z,6.60
2019-05-06T11:16:46.300Z,6.60
2019-05-06T11:17:46.345Z,6.40
2019-05-06T11:18:46.392Z,7.40
2019-05-06T11:19:46.434Z,7.30
2019-05-06T11:20:46.481Z,6.80
2019-05-06T11:21:46.527Z,6.60
2019-05-06T11:22:46.575Z,6.30
2019-05-06T11:23:46.626Z,6.90
2019-05-06T11:24:46.686Z,6.80
2019-05-06T11:25:46.713Z,5.60
2019-05-06T11:26:49.381Z,6.10
2019-05-06T11:27:46.819Z,6.20
2019-05-06T11:29:36.768Z,6.20
2019-05-06T11:30:34.475Z,5.70
2019-05-06T11:31:34.525Z,6.20
2019-05-06T11:32:34.566Z,6.00
2019-05-06T11:33:34.616Z,5.90
2019-05-06T11:34:34.663Z,5.70
2019-05-06T11:35:34.710Z,5.70
2019-05-06T11:36:37.544Z,6.10
2019-05-06T11:37:46.301Z,6.10
2019-05-06T11:38:34.853Z,5.90
2019-05-06T11:39:34.901Z,5.40
2019-05-06T11:40:38.988Z,6.00
2019-05-06T11:41:34.998Z,6.20
2019-05-06T11:42:35.882Z,6.20
2019-05-06T11:43:35.101Z,5.80
2019-05-06T11:44:35.143Z,5.30
2019-05-06T11:45:35.192Z,5.60
2019-05-06T11:46:35.245Z,5.60
2019-05-06T11:47:35.289Z,6.10
2019-05-06T11:48:35.336Z,6.40
2019-05-06T11:49:35.396Z,5.90
2019-05-06T11:50:36.849Z,6.10
2019-05-06T11:51:35.483Z,6.50
2019-05-06T11:52:35.530Z,6.20
2019-05-06T11:53:35.578Z,5.60
2019-05-06T11:54:35.651Z,5.40
2019-05-06T11:56:47.768Z,5.50
2019-05-06T11:57:35.775Z,5.30
2019-05-06T11:58:36.152Z,4.70
2019-05-06T11:59:35.872Z,4.80
2019-05-06T12:00:36.072Z,6.10
2019-05-06T12:01:35.970Z,6.00
2019-05-06T12:02:36.020Z,6.00
2019-05-06T12:03:36.068Z,7.20
2019-05-06T12:04:36.118Z,6.50
2019-05-06T12:05:36.169Z,6.80
2019-05-06T12:06:36.218Z,6.40
2019-05-06T12:07:36.266Z,6.40
2019-05-06T12:08:36.315Z,6.80
2019-05-06T12:09:36.379Z,6.30
2019-05-06T12:10:36.413Z,6.20
2019-05-06T12:11:39.893Z,6.30
2019-05-06T12:12:36.514Z,6.00
2019-05-06T12:13:38.224Z,5.80
2019-05-06T12:14:36.606Z,6.50
2019-05-06T12:15:36.653Z,6.80
2019-05-06T12:16:36.705Z,7.00
2019-05-06T12:17:36.749Z,6.90
2019-05-06T12:18:36.794Z,5.90
2019-05-06T12:19:36.844Z,5.60
2019-05-06T12:20:36.894Z,4.80
2019-05-06T12:21:36.936Z,5.40
2019-05-06T12:22:36.982Z,5.50
2019-05-06T12:23:37.044Z,6.00
2019-05-06T12:24:37.077Z,6.00
2019-05-06T12:25:37.130Z,5.90
2019-05-06T12:26:37.176Z,5.20
2019-05-06T12:27:37.220Z,4.70
2019-05-06T12:28:37.269Z,6.10
2019-05-06T12:29:38.434Z,6.60
2019-05-06T12:30:37.364Z,6.30
2019-05-06T12:31:37.413Z,5.60
2019-05-06T12:32:37.461Z,6.30
2019-05-06T12:33:37.712Z,6.40
2019-05-06T12:34:37.559Z,6.30
2019-05-06T12:35:37.629Z,6.00
2019-05-06T12:36:37.874Z,6.50
2019-05-06T12:37:37.937Z,6.40
2019-05-06T12:38:37.743Z,6.50
2019-05-06T12:39:37.790Z,6.20
2019-05-06T12:40:37.837Z,6.40
2019-05-06T12:41:37.887Z,6.80
2019-05-06T12:42:39.349Z,7.80
2019-05-06T12:43:37.981Z,7.00
2019-05-06T12:44:38.028Z,6.50
2019-05-06T12:45:38.078Z,6.90
2019-05-06T12:46:38.205Z,7.10
2019-05-06T12:47:38.201Z,7.80
2019-05-06T12:48:38.218Z,7.90
2019-05-06T12:49:38.280Z,7.80
2019-05-06T12:50:38.364Z,9.40
2019-05-06T12:51:38.361Z,8.50
2019-05-06T12:52:38.418Z,8.90
2019-05-06T12:53:38.455Z,9.00
2019-05-06T12:54:38.502Z,9.10
2019-05-06T12:55:38.547Z,9.20
2019-05-06T12:56:38.596Z,9.20
2019-05-06T12:57:38.637Z,10.10
2019-05-06T12:58:38.685Z,9.90
2019-05-06T12:59:38.725Z,9.00
2019-05-06T13:00:38.770Z,9.70
2019-05-06T13:01:38.812Z,9.50
2019-05-06T13:02:38.864Z,9.90
2019-05-06T13:03:38.898Z,10.90
2019-05-06T13:04:51.302Z,9.60
2019-05-06T13:05:38.986Z,9.90
2019-05-06T13:06:46.114Z,10.30
2019-05-06T13:07:39.069Z,10.30
2019-05-06T13:08:54.105Z,9.50
2019-05-06T13:09:42.244Z,9.60
2019-05-06T13:10:39.193Z,9.00
2019-05-06T13:13:26.843Z,9.30
2019-05-06T13:14:26.882Z,10.00
2019-05-06T13:15:26.922Z,9.40
2019-05-06T13:16:26.965Z,9.70
2019-05-06T13:17:27.003Z,9.40
2019-05-06T13:18:27.043Z,9.90
2019-05-06T13:19:27.081Z,9.90
2019-05-06T13:20:27.173Z,9.80